Filtrer par Nom Sexe Groupe d'age
Ventoux GranFondo 2018
RG. DOS. TEMPS CAT RG. POINTS
1 553 ALEXANDER DUNCAN 05:17:47 E 1 315.00 MORGES, Suisse
2 38 RODRIGUEZ MICKAEL 05:18:37 E 2 313.95 LE MOUTARET, FRANCE
3 5 TURNES WILLIAM 05:18:41 E 3 312.90 LA TOUSSUIRE, France
4 130 LOURD RODOLPHE 05:20:10 D 1 315.00 FONTAINE, France
5 76 OSTIAN FREDERIC 05:22:04 E 4 311.85 SAINT VINCENT DE MERCUZE, France
6 136 GENIEZ MATTHIEU 05:22:29 D 2 313.95 DRUELLE, FRANCE
7 184 LORTHIOIR PAUL-EMILE 05:24:03 C 1 315.00 Vitrolles, France
8 93 TAIEB RAPHAEL 05:24:22 D 3 312.90 PARIS, FRANCE
9 198 DE VOS TIM 05:27:25 C 2 313.95 LENNIK, BELGIQUE
10 340 LAPANDERIE GHYSLAIN 05:29:24 E 5 310.80 LAFOX, France
11 132 VUILLIER DAMIEN 05:30:59 D 4 311.85 CUSE ET ADRISANS, France
12 131 MEZURE TONY 05:35:23 D 5 310.80 CANNES, FRANCE
13 7 CARPENTIER JIMMY 05:36:17 C 3 312.90 AMPHION-LES-BAINS, France
14 585 CHEYLAN STEPHANE 05:36:19 E 6 309.75 VELLERON, FRANCE
15 165 BERNARD FLORIAN 05:39:41 D 6 309.75 SIDEVILLE, France
16 139 POTIER GUILLAUME 05:39:49 D 7 308.70 LA CIOTAT, France
17 455 NOEL MATHIAS 05:39:59 C 4 311.85 FAINS-VEEL, France
18 148 VERNHES SEBASTIEN 05:40:09 D 8 307.65 ANGLARS SAINT FELIX, FRANCE
19 164 QUINTANE MATHIEU 05:40:10 D 9 306.60 SAINT MARCEL, France
20 86 SKUPKE KRZYSZTOF 05:40:10 E 7 308.70 HERRSCHING, Allemagne
21 170 PHANON JEROME 05:40:16 E 8 307.65 Saint Baudille et Pipet, France
22 176 BONNIN DAVID 05:40:18 E 9 306.60 DELFT, Pays-Bas
23 541 JANNIN ANTOINE 05:42:20 E 10 305.55 LA RAVOIRE, FRANCE
24 146 MATHIEU STEPHANE 05:43:58 D 10 305.55 Onet Le Chateau, France
25 114 PEETERS RAPHAEL 05:44:08 C 5 310.80 FRAIRE, Belgique
26 194 CHABERT DOMINIQUE 05:44:09 F 1 315.00 NIMES, France
27 21 VROLIJKX BART 05:44:26 C 6 309.75 Overhespen, Belgique
28 127 MUNDT SYLVAIN 05:45:37 D 11 304.50 PERTUIS, FRANCE
29 149 LEGENDRE BERTRAND 05:46:59 E 11 304.50 MARCHEVILLE, France
30 158 PERON SEBASTIEN 05:48:17 E 12 303.45 CARPENTRAS, France
31 168 DROZ VINCENT JEAN BAPTISTE 05:48:18 D 12 303.45 OYE ET PALLET, France
32 150 DROUET FREDDY 05:48:43 D 13 302.40 ST CORNEILLE, France
33 137 DELERIS GERMAIN 05:50:13 D 14 301.35 Druelle, France
34 190 RAYBAUD NICOLAS 05:50:46 D 15 300.30 EYMEUX, France
35 78 BOYRIE J.PIERRE 05:51:49 E 13 302.40 BORDERES, France
36 456 LUGLIA DANIEL 05:52:48 F 2 313.95 PIERREFEU, France
37 110 Borghs Eric 05:55:57 F 3 312.90 GEEL, Belgique
38 547 ESCHARD GUILLAUME 05:55:57 D 16 299.25 VALENCE, France
39 166 SCHURTZ NICOLAS 05:56:10 E 14 301.35 MEAUX, FRANCE
40 163 RASQUIN THIERRY 05:57:27 D 17 298.20 PARIS, FRANCE
41 189 WARGEE STEVEN 05:57:58 D 18 297.15 Loonbeek, Belgique
42 177 SANNEN IVAN 06:00:21 E 15 300.30 BINKOM (LUBBEEK), Belgique
43 159 BECARUD THOMAS 06:02:05 D 19 296.10 MANOSQUE, France
44 390 DAVO JEAN-CHRISTOPHE 06:02:05 E 16 299.25 PONT DE BARRET, FRANCE
45 174 TOMASONI GREG 06:02:54 D 20 295.05 SAINT VINCENT DE MERCUZE, FRANCE
46 96 BAELEN FABRICE 06:03:15 F 4 311.85 PEGOMAS, FRANCE
47 162 CHANGEAT BRUNO 06:03:15 E 17 298.20 SAINT CHAMOND, FRANCE
48 65 GAILLARD JULIEN 06:03:15 D 21 294.00 GRENOBLE, France
49 524 DURA GILBERT 06:03:16 F 5 310.80 VENISSIEUX, FRANCE
50 533 DALLARD BRUNO 06:03:16 E 18 297.15 SAINT MARTIN DE VALAMAS, FRANCE
51 121 HATILIP WILLIAM 06:04:26 E 19 296.10 Toulouse, France
52 79 VANDENSANDE SEBASTIAAN 06:08:17 C 7 308.70 KESSEL-LO, Belgique
53 556 BOZZETTO PATRICE 06:08:18 E 20 295.05 La valette du var, France
54 143 BOUDOT ROMAIN 06:08:19 E 21 294.00 SORNAY, FRANCE
55 499 LE MAUFF FRANCK 06:09:51 D 22 292.95 SEYSSINET PARISET, France
56 406 ROUGIER YANNICK 06:11:25 D 23 291.90 SUSSARGUES, FRANCE
57 108 PETERS JIM 06:11:53 E 22 292.95 Loughborough, Royaume-Uni
58 69 VAN DER LINDEN DAVY 06:12:03 D 24 290.85 Merelbeke, Belgique
59 27 BEELEN NIKO 06:12:27 E 23 291.90 BOUTERSEM, BELGIQUE
60 482 SCHOLVINO BRUNO 06:13:47 D 25 289.80 , FRANCE
61 481 KARLESKIND ROBIN 06:13:47 C 8 307.65 , FRANCE
62 107 NAPOLETANO FABIEN 06:14:13 D 26 288.75 ROQUEVAIRE, France
63 118 SANCHEZ JEAN MICHEL 06:14:23 F 6 309.75 ST GRATIEN, France
64 306 VANDENHOECK JORIS 06:14:50 E 24 290.85 BEVEREN-WAAS, BELGIQUE
65 403 TISSEYRE BERTRAND 06:14:50 E 25 289.80 FOIX, France
66 161 JANUEL FRANCK 06:15:15 D 27 287.70 SAINT JEAN BONNEFONDS, France
67 100 VAN HOORDE CARL 06:15:53 D 28 286.65 Dendermonde, Belgique
68 128 TIMMERMANS DENNIS 06:15:53 D 29 285.60 S-GRAVENMOER, Pays-Bas
69 31 DUPUY LAURENT 06:16:40 E 26 288.75 Monteux, France
70 193 BREWER STEVEN 06:17:08 E 27 287.70 ROLLE, Suisse
71 95 BEZ SERGE 06:17:33 F 7 308.70 SALON DE PROVENCE, FRANCE
72 129 TOFANELLI DOMINIQUE 06:18:15 E 28 286.65 NIMES, France
73 75 BRIGANTI MICKAëL 06:18:44 D 30 284.55 ARAMON, FRANCE
74 566 CHAPELON JEANPHILIPPE 06:19:30 D 31 283.50 LA COUCOURDE, FRANCE
75 483 ROCCHIA CHRISTOPHE 06:19:30 E 29 285.60 ENSUES LA REDONNE, France
76 337 CUISSINAT JEAN-MARC 06:19:47 D 32 282.45 BEAULON, France
77 199 NOTLEY IAN 06:21:34 F 8 307.65 LONDON, Royaume-Uni
78 88 DESROIS JEAN CLAUDE 06:22:03 F 9 306.60 ORANGE, FRANCE
79 181 CAMPOS XAVIER 06:22:07 E 30 284.55 CARCASSONNE, FRANCE
80 662 LEJOLY FRANK 06:23:05 F 10 305.55 MALMEDY, BELGIQUE
81 577 MORIN ALAIN 06:24:24 F 11 304.50 TULLE, France
82 530 LAUFRAY ALEXANDRE 06:25:43 C 9 306.60 BOURGOIN JALLIEU, France
83 182 LESCASTREYRES MICHEL 06:28:49 G1 1 315.00 BALMA, France
84 120 KORVING SANDER 06:28:49 E 31 283.50 DRIEBERGEN, Pays-Bas
85 133 CHEVALIER JéRôME 06:30:11 E 32 282.45 CARCASSONNE, FRANCE
86 187 KAESLER JONAS 06:30:12 D 33 281.40 CAROUGE, SUISSE
87 505 PASCAL NICOLAS 06:31:05 E 33 281.40 NARBONNE, FRANCE
88 103 PATUEL IAN 06:31:37 F 12 303.45 BEVILLE LE COMTE, France
89 561 VALLS XEVI 06:31:40 D 34 280.35 FOLGUEROLES, ESPAGNE
90 509 COUILLEZ LILIAN 06:31:40 C 10 305.55 TANAVELLE, FRANCE
91 576 MARAGA CLAUDE 06:31:40 G1 2 313.95 LAMBESC, France
92 328 DECROZE FABIEN 06:31:41 E 34 280.35 MARCQ EN BAROEUL, FRANCE
93 523 GUYARD JULIEN 06:31:42 E 35 279.30 SAINT OUEN, FRANCE
94 72 KHAMIS RIYADH 06:33:44 E 36 278.25 LONDON, UK
95 142 STUBY JEAN LUC 06:33:50 F 13 302.40 SAINT-LEGIER, Suisse
96 464 SORIGUé PONS ERIC 06:35:06 D 35 279.30 ALMENAR, ESPAGNE
97 322 MISSONNIER LAURENT 06:35:07 E 37 277.20 VEYRE MONTON, FRANCE
98 144 VARDULAKIS GEORGE 06:35:08 E 38 276.15 Cambridge, Royaume-Uni
99 558 DEGACHE SIMON 06:35:49 D 36 278.25 GRENOBLE, FRANCE
100 175 DE SART BERNARD 06:37:02 E 39 275.10 OREYE, BELGIQUE
101 431 FERRE DAMIEN 06:37:02 E 40 274.05 GUECELARD, France
102 99 VERMEIREN PETER 06:37:02 D 37 277.20 DESTELBERGEN, BELGIQUE
103 426 MARTI XAVIER 06:37:05 D 38 276.15 ALMENAR, ESPAGNE
104 180 PEPPER KAREN 06:37:35 AB 1 315.00 La Turbie, France
105 527 HAELEWYN JURGEN 06:37:35 E 41 273.00 GAVERE, BELGIQUE
106 28 WARNIER LUC 06:38:00 F 14 301.35 OTHEE, Belgique
107 417 FONTANT JEAN 06:38:00 C 11 304.50 Toulouse, France
108 536 DELGADO GONZALEZ ALBERTO 06:38:04 D 39 275.10 LA OROTAVA, ESPAGNE
109 398 ROUSSEL SEBASTIEN 06:38:37 E 42 271.95 MAZERES, FRANCE
110 515 LOPEZ CHRISTOPHE 06:38:39 E 43 270.90 BOURG DE PEAGE, FRANCE
111 538 HUSSON CYRILLE 06:39:06 E 44 269.85 DIJON, FRANCE
112 554 TARBOURIECH MICHEL 06:40:31 F 15 300.30 SAINT AFFRIQUE LES MONTAGNES, France
113 666 VAN DINGENEN LUC 06:40:38 F 16 299.25 WECHELDERZANDE, BELGIQUE
114 461 ESPEEL GREGORY 06:41:08 E 45 268.80 Waregem, Belgique
115 433 BLOT JULIEN 06:41:38 D 40 274.05 LE MANS, France
116 113 FURNON SYLVAIN 06:43:32 E 46 267.75 OLLIOULES, FRANCE
117 671 ABEL JEAN PHILIPPE 06:43:36 F 17 298.20 MOURS ST EUSEBE, France
118 98 PORRE JEAN-MICHEL 06:43:51 F 18 297.15 CABRIS, FRANCE
119 674 RABUSSIER OLIVIER 06:46:04 E 47 266.70 LA VALETTE DU VAR, FRANCE
120 673 SMORTO PATRICE 06:46:04 F 19 296.10 LA VALETTE, FRANCE
121 535 DOS SANTOS GEORGES 06:46:05 F 20 295.05 VITROLLES, FRANCE
122 135 STEPHENS MICHAEL 06:47:31 E 48 265.65 LONDON, UK
123 664 BALLMANN DANY 06:48:34 E 49 264.60 , BELGIQUE
124 20 CORNU MAURICE 06:48:35 G2 1 315.00 TONNERRE, France
125 574 BEYNDERS LUC 06:49:29 E 50 263.55 , BELGIQUE
126 188 PAUDOIE YOANN 06:49:46 D 41 273.00 NICE, France
127 548 PELLENC OLIVIER 06:49:47 E 51 262.50 NIMES, FRANCE
128 147 SANTI CLAUDE 06:50:05 G1 3 312.90 GRASSE, FRANCE
129 105 BOUVIER FRANCK 06:50:16 F 21 294.00 SAINT LAURENT EN ROYANS, France
130 179 BUQUET PAUL 06:50:18 G1 4 311.85 orange, France
131 382 NAUROY BERTRAND 06:50:45 E 52 261.45 THUREY LE MONT, France
132 444 MOUSSU NICOLAS 06:50:45 E 53 260.40 TOULON, France
133 660 SCHILS ARNAUD 06:51:01 D 42 271.95 LIèGE, Belgique
134 192 FILIOL RICHARD 06:51:09 E 54 259.35 st chamond, France
135 668 COLOMBET QUENTIN 06:51:32 C 12 303.45 , FRANCE
136 64 FREAU DENIS 06:53:39 G1 5 310.80 PIOLENC, France
137 501 CHAUVIN CHRISTOPHE 06:53:56 F 22 292.95 PELLEAUTIER, FRANCE
138 191 GONNON BRUNO 06:53:58 F 23 291.90 LA BATIE NEUVE, FRANCE
139 140 STEINER REMY 06:54:41 G1 6 309.75 CHE_ZARD, Suisse
140 428 FLEURENCE DANIEL 06:54:41 F 24 290.85 Savigny le Temple, France
141 504 VALENTIN GILLES 06:54:50 F 25 289.80 ERAGNY SUR OISE, FRANCE
142 104 LEGEAY FABRICE 06:56:31 F 26 288.75 CHAMBLES, FRANCE
143 529 FOSSE MATTHIEU 06:56:33 E 55 258.30 NARBONNE, FRANCE
144 445 GENOVESI DANIELA 06:56:53 B 1 315.00 RIO DE JANEIRO, BRESIL
145 106 CHETRY LAURENT 06:57:43 F 27 287.70 GRENOBLE, France
146 60 MYLKA ALINA 06:57:44 A 1 315.00 BERN, SUISSE
147 317 MEHLER ACHIM 06:58:33 F 28 286.65 OBERMOSCHEL, Allemagne
148 183 NAVARRO SERGE 07:00:06 F 29 285.60 MARTIGUES, FRANCE
149 663 BRAGARD ALAIN 07:00:22 F 30 284.55 , BELGIQUE
150 582 ROBINSON IAN 07:01:28 F 31 283.50 BEDOIN, France
151 460 BERTE FRANCK 07:01:31 F 32 282.45 ROCBARON, FRANCE
152 171 BELLETRE THIERRY 07:01:31 F 33 281.40 HENOUVILLE, France
153 374 BRIENEN GEERT 07:01:33 D 43 270.90 HELMOND, Pays-Bas
154 386 BOCQUET JONATHAN 07:03:10 E 56 257.25 TOULON, FRANCE
155 385 HODGE BEN 07:03:10 D 44 269.85 SOUTH YARRA, Australie
156 122 LABEAU OLIVIER 07:03:12 E 57 256.20 HASPARREN, France
157 573 BURGER VINCENT 07:03:15 E 58 255.15 ASPACH LE BAS, FRANCE
158 125 VAN DAMME JELLE 07:03:47 D 45 268.80 MOERBEKE-WAAS, BELGIQUE
159 97 BERENDSEN ERIC 07:04:03 F 34 280.35 OSS, Pays-Bas
160 343 DROMARD ANTOINE 07:04:17 D 46 267.75 GRENOBLE, France
161 443 FLEURENCE DAMIEN 07:04:44 C 13 302.40 ANSE, FRANCE
162 397 DELEVACQUE ANTONY 07:05:41 D 47 266.70 MAICHE, France
163 352 MESQUITA JULIEN 07:05:45 C 14 301.35 PERTUIS, FRANCE
164 363 MAZET GAUTHIER 07:05:45 E 59 254.10 MAZERES, FRANCE
165 399 MALAS DAVID 07:06:24 E 60 253.05 VIMONT, France
166 489 CHAPELET MAXENCE 07:07:10 C 15 300.30 CARPENTRAS, France
167 488 MARTIN ARNAUD 07:07:10 C 16 299.25 CARPENTRAS, FRANCE
168 413 VANDENHEEDE DRIES 07:07:32 D 48 265.65 Ertvelde, Belgique
169 302 VANDENHEEDE PIETERJAN 07:08:06 D 49 264.60 SINT-KRUIS-WINKEL, Belgique
170 152 HOOGENDAM STEPHAN 07:09:42 D 50 263.55 ROTTERDAM, Pays-Bas
171 531 CULLET ALAIN 07:10:16 F 35 279.30 TOULOUSE, FRANCE
172 154 GABRIELS CHARLES 07:10:25 E 61 252.00 UTRECHT, Pays-bas
173 654 CHAMPENOIS JOSE 07:10:26 G1 7 308.70 RIEZES, Belgique
174 540 SAGNES NICOLAS 07:10:28 E 62 250.95 NIMES, FRANCE
175 562 ONA CASTELLSAGUE BONADA 07:11:03 A 2 313.95 SANT JULIÀ DE VILATORTA, ESPAGNE
176 323 IMBERT LAURENT 07:11:05 F 36 278.25 CHATEL GUYON, FRANCE
177 651 PISSOT XAVIER 07:13:56 E 63 249.90 LE MANS, FRANCE
178 450 BERGSMA ALEX 07:14:05 E 64 248.85 DOORWERTH, Pays-Bas
179 401 BURGERS JAKO 07:14:06 F 37 277.20 GORINCHEM, Pays-Bas
180 63 DELARACE PHILIPPE 07:14:47 F 38 276.15 CALAIS, France
181 480 VOUILLON BERNARD 07:16:11 F 39 275.10 TRAMBLY, France
182 61 DEL CASTILLO JOSE 07:16:12 G2 2 313.95 BEAUMONT-LSS-VALENCE, FRANCE
183 492 THIMON GILBERT 07:16:12 F 40 274.05 TRAMAYES, FRANCE
184 90 CHETCUTI PATRICK 07:16:50 F 41 273.00 BARBENTANE, FRANCE
185 331 DECROZE CYRIL 07:17:06 E 65 247.80 PIERRE BUFFIERE, FRANCE
186 526 BALTHAZARD SYLVAIN 07:18:27 F 42 271.95 , FRANCE
187 440 BAUDRY BERNARD 07:19:29 F 43 270.90 JOUARRE, FRANCE
188 33 BREUILLY YVAN 07:20:15 G2 3 312.90 VILLEMER, France
189 71 VERDUYCKT MARK 07:20:31 E 66 246.75 , BELGIQUE
190 138 MERTENS KOEN 07:20:48 F 44 269.85 PEPINGEN, Belgique
191 309 LAVASTRE JACQUES 07:21:13 F 45 268.80 MAZAYES, FRANCE
192 32 MARTINCIC SEBASTIEN 07:23:51 E 67 245.70 , FRANCE
193 30 UNAL CLEMENT 07:23:51 D 51 262.50 CARPENTRAS, France
194 26 CLEMENT LAURENT 07:24:02 F 46 267.75 ANNONAY, France
195 13 STANESCO JOEL 07:24:07 G2 4 311.85 AUCALEUC, France
196 335 FUELLE GUNNAR 07:24:52 F 47 266.70 FREIBURG, Allemagne
197 478 DESTRUMEL PATRICK 07:24:54 F 48 265.65 AUXERRE, France
198 87 DAILLIEZ BRUNO 07:25:13 F 49 264.60 MONTEUX, France
199 466 AL-TEK ALI 07:25:15 E 68 244.65 LONDON, UK
200 16 ROOSE YANNIK 07:25:34 F 50 263.55 BRUXELLES, Belgique
201 555 GILIBERT FABIEN 07:25:34 D 52 261.45 GRENOBLE, France
202 119 GOODWIN VICKI 07:25:38 AB 2 313.95 PLAN-LES-OUATES, Suisse
203 476 MOREL CHRISTOPHE 07:25:52 F 51 262.50 ST LAURENT DU VAR, FRANCE
204 495 FRYS BRUNO 07:26:00 F 52 261.45 AUBIGNAN, France
205 414 FRANK JENS 07:26:11 G1 8 307.65 Seguret, Danemark
206 396 HUMBERT FLORIAN 07:26:18 F 53 260.40 BESANCON, France
207 423 TIRONZELLI STEPHANE 07:26:21 E 69 243.60 SAINT OUEN SUR MORIN, France
208 315 CLEMENTZ JULIEN 07:26:30 D 53 260.40 NIEDERHERGHEIM, France
209 384 GOUDSWAARD ALEX 07:26:56 G2 5 310.80 HOUTEN, Pays-Bas
210 655 SIMONCELLI PHILIPPE 07:27:15 F 54 259.35 SAINT SATURNIN LES AVIGNON, FRANCE
211 493 VALLORY ERIC 07:28:51 F 55 258.30 LAUDUN, FRANCE
212 392 BOUCHEFF ALEXIS 07:28:52 C 17 298.20 BRON, FRANCE
213 422 DUNAND CHRISTIAN 07:28:53 G1 9 306.60 , FRANCE
214 560 FELIPE JURADO BOTELLA 07:29:00 D 54 259.35 ONTINYENT, ESPAGNE
215 66 CRETS RICHARD 07:29:46 I 1 315.00 THEUX, BELGIQUE
216 178 MILLS ANTHONY 07:29:55 F 56 257.25 MIRABEL AUX BARONNIES, France
217 580 PIBAROT DIDIER 07:29:56 F 57 256.20 VILLATE, FRANCE
218 514 ROHMER DAVID 07:30:08 E 70 242.55 LYON, FRANCE
219 658 OLIEMAN KEES 07:30:10 G2 6 309.75 DRUTEN, Pays-Bas
220 145 DELAGE FREDERIC 07:31:21 E 71 241.50 PEYNIER, France
221 305 SABATHE JEAN-MARIE 07:31:26 G1 10 305.55 PERTUIS, FRANCE
222 468 PERRET JEAN-LOUIS 07:32:03 E 72 240.45 MARSEILLE, FRANCE
223 366 VEDOVATI STEPHANIE 07:32:43 AB 3 312.90 LE PUY SAINTE RÉPARADE, France
224 307 NIELSEN KIM 07:33:22 F 58 255.15 KOEGE, DANEMARK
225 474 MINOR PETER 07:34:06 G1 11 304.50 KOEBENHAVN OE, DANEMARK
226 525 HAUGUTH RENE 07:34:16 F 59 254.10 FREYMING-MERLEBACH, France
227 318 ALBLAS DAAN 07:34:43 D 55 258.30 ZWIJNDRECHT, Pays-Bas
228 446 PRESA MICHEL 07:35:45 F 60 253.05 Notre dame de Londres, France
229 439 CASTANET MICHEL 07:36:28 F 61 252.00 ROUSSON, France
230 389 VAN KAMPEN JAN WILLEM 07:36:32 D 56 257.25 HAARLEM, Pays-Bas
231 195 SEAN NOTLEY 07:37:30 F 62 250.95 HENLEY ON THAMES, Royaume-Uni
232 550 LE POUHAER PHILIPPE 07:37:31 F 63 249.90 BERNIN, FRANCE
233 355 WALKER ANDREW 07:37:45 F 64 248.85 CIRENCESTER, Royaume-Uni
234 116 STUBY CHRISTINE 07:37:45 AB 4 311.85 SAINT-LEGIER, Suisse
235 156 BOSCH CHRISTIAN 07:38:28 F 65 247.80 La Capelle-et-Masmolène, France
236 665 GICQUEL SERGE 07:39:58 G2 7 308.70 MOLLANS SUR OUVEZE, France
237 196 BOURREAU JACQUES 07:40:39 G1 12 303.45 COGOLIN, France
238 303 PIZZARDINI EDDY 07:43:45 F 66 246.75 ISSY LES MOULINEAUX, FRANCE
239 447 MORNET KAREN 07:45:35 A 3 312.90 AVIGNON, FRANCE
240 469 MORNET LAURENT 07:45:35 F 67 245.70 ARLES, FRANCE
241 349 MOURRAT DAVID 07:45:35 E 73 239.40 MAISONS LAFFITTE, France
242 91 VILLANCE JULIEN 07:46:18 G2 8 307.65 FAYS LES VENEURS, Belgique
243 572 BASTIN THIERRY 07:46:19 F 68 244.65 LIBIN, BELGIQUE
244 552 GRANGAGNAGE JULIEN 07:46:22 D 57 256.20 TOULOUSE, FRANCE
245 421 LELEU FABRICE 07:48:30 E 74 238.35 vitry sur seine, France
246 371 KEESMAN LEO 07:50:52 F 69 243.60 ZANDVOORT, Pays-Bas
247 659 ENJALBERT BERNARD 07:50:58 G2 9 306.60 VIVIERS LES MONTAGNES, FRANCE
248 477 BOUTREAUX CLAUDE 07:51:41 F 70 242.55 NICE, FRANCE
249 361 VERBEEK NICK 07:54:27 E 75 237.30 UTRECHT, Pays-Bas
250 545 Leveque Olivier 07:55:42 E 76 236.25 TOULOUSE, France
251 67 FRANCK THIERRY 07:55:59 F 71 241.50 SAINT HUBERT, BELGIQUE
252 370 STERKS WILLEM 07:55:59 E 77 235.20 UTRECHT, Pays-Bas
253 404 PEREZ JOSé 07:56:03 F 72 240.45 MAZERES, FRANCE
254 457 JERAS DICK 07:56:41 G1 13 302.40 Den Haag, Pays-Bas
255 487 PROSPER ALAIN 07:57:37 G1 14 301.35 LE CANNET, FRANCE
256 528 HAUGUTH JULIEN 07:58:06 D 58 255.15 MARANGE-SILVANGE, France
257 341 RODWELL PAUL 07:58:06 F 73 239.40 JOHNSTONE, Royaume-Uni
258 500 VANDERLINDEN WIM 07:58:07 E 78 234.15 NEERIJSE, Belgique
259 153 CHARLIER ERWIN 07:58:09 E 79 233.10 S-HERTOGENBOSCH, Pays-bas
260 391 ROMANIN JEAN PIERRE 07:59:06 E 80 232.05 LA TOUR DU CRIEU, FRANCE
261 416 GARDES JEAN-PAUL 07:59:31 G1 15 300.30 LE GRAU DU ROI, FRANCE
262 415 SPETTER SALLO 08:00:02 G2 10 305.55 HAARLEM, Pays-Bas
263 73 TUNINETTI JULIEN 08:00:30 E 81 231.00 MARSEILLE, France
264 657 PERNEL JEAN PIERRE 08:02:32 F 74 238.35 Mirecourt, France
265 185 FARRET MAX 08:04:12 F 75 237.30 CAMBERNARD, France
266 484 CALOFER JEAN PIERRE 08:04:13 G1 16 299.25 BRUGES, FRANCE
267 653 ROULLEAU JEAN CLAUDE 08:05:31 G1 17 298.20 PARIS, FRANCE
268 518 BLIKI WESLEY 08:05:31 E 82 229.95 Wanzele, Belgique
269 498 LIMPER PETER 08:07:15 D 59 254.10 Baarn, Pays-Bas
270 581 VILLENEUVE DANIEL 08:07:28 F 76 236.25 , FRANCE
271 517 ROQUES OLIVIER 08:09:44 D 60 253.05 SAINT-ETIENNE, FRANCE
272 516 MATHIOT RAPHAEL 08:10:46 D 61 252.00 MARSEILLE, FRANCE
273 546 GERARD CLOS 08:11:29 D 62 250.95 GIRONA, ESPAGNE
274 569 NICOLI SERGE 08:13:11 F 77 235.20 JOUY LE MOUTIER, France
275 656 SOUHARCE JEAN PAUL 08:13:11 E 83 228.90 GURMENCON, FRANCE
276 669 GRIMAL CLAUDE 08:13:26 G1 18 297.15 PERNES LES FONTAINES, FRANCE
277 557 MONNARD DANIEL 08:13:32 G1 19 296.10 CHENE BOURG, SUISSE
278 186 TABARET DOMINIQUE 08:14:07 G2 11 304.50 VERNIOZ, France
279 583 GUIGAL THIERRY 08:14:08 F 78 234.15 CHEYSSIEU, FRANCE
280 124 VAN DAMME JELLE 08:14:32 G1 20 295.05 MOERBEKE-WAAS, BELGIQUE
281 454 MONSIEUR PIERRE 08:15:34 C 18 297.15 ST JEAN, FRANCE
282 453 MONSIEUR ALAIN 08:15:34 F 79 233.10 SAINT JEAN DE BRAYE, FRANCE
283 661 CHABERT ERIC 08:16:53 F 80 232.05 , FRANCE
284 301 VINCENT COLLIN 08:16:54 F 81 231.00 Marbehan, Belgique
285 304 EUSER JACCO 08:17:57 D 63 249.90 HENDRIK IDO AMBACHT, Pays-Bas
286 463 STEPANOV PIERRE 08:18:54 E 84 227.85 PARIS, FRANCE
287 62 MIRANDA DIDIER 08:19:13 F 82 229.95 ST BERNARD DU TOUVET, France
288 451 MAZEN BRICE 08:20:37 D 64 248.85 GRENOBLE, France
289 475 GUILLAUME THOMAS 08:20:38 D 65 247.80 FONTAINE, France
290 570 BERGER PASCAL 08:21:52 E 85 226.80 BUIS LES BARONNIES, FRANCE
291 338 NIJS TOM 08:24:02 E 86 225.75 LOONBEEK, Belgique
292 575 NATALIS JEAN CLAUDE 08:25:27 F 83 228.90 , BELGIQUE
293 12 VANSPRINGEL JOSEPH 08:26:48 F 84 227.85 Vosselaar, Belgique
294 141 GRILLON JEAN-MARIN 08:26:52 D 66 246.75 GENEVE, Suisse
295 459 COSNARD RAPHAëL 08:26:52 D 67 245.70 NEUCHATEL, SUISSE
296 357 grillet dirk 08:28:51 F 85 226.80 WESPELAAR, BELGIQUE
297 329 DECOUTEIX MICHEL 08:29:53 F 86 225.75 SAINT OURS, FRANCE
298 551 LEON JOAN CARLES 08:32:03 E 87 224.70 Moirans, France
299 373 VERNIMMEN ROBERT 08:32:58 F 87 224.70 SEPTFONTAINES, Luxembourg
300 334 DE GEYNDT WILLY 08:34:08 G1 21 294.00 TERNAT, BELGIQUE
301 376 VAN DEN BROECK LUK 08:39:50 F 88 223.65 MALDEREN, BELGIQUE
302 539 GIRINO BRUNO 08:39:51 G1 22 292.95 Tarascon, France
303 332 JEANJEAN LAURENT 08:39:53 F 89 222.60 MENTON, France
304 449 FACY LAURENT 08:40:50 F 90 221.55 ST. MARTIN D URIAGE, France
305 465 LANGELUND KNUD 08:52:26 G1 23 291.90 SKJERN, DANEMARK
306 584 COURBET FRANCOIS 08:54:26 G1 24 290.85 AVIGNON, FRANCE
307 434 TENCE MICKAEL 08:54:31 E 88 223.65 LE MANS, France
308 365 HAFNER LAURENT 08:55:38 F 91 220.50 LUXEMBOURG, Luxembourg
309 400 TARDIVEAU DANIEL 08:56:33 F 92 219.45 VERNOU LA CELLE, France
310 652 DEGRIECK STEFAAN 08:56:40 F 93 218.40 CHAMPAGNY, FRANCE
311 532 VANDERMEERSCHEN SVEN 08:57:07 D 68 244.65 OVERIJSE, Belgique
312 506 HOBLEY IAN 08:57:16 E 89 222.60 WORTHEN, Royaume-Uni
313 350 DOUBLET RAPHAëL 08:57:22 E 90 221.55 RUEIL-MALMAISON, FRANCE
314 112 DINDORF FRANK 08:58:33 E 91 220.50 OBERMOSCHEL, Allemagne
315 342 MC ALLISTER ALEX 08:58:38 G1 25 289.80 TROON, Royaume-Uni
316 316 MERRY CHRIS 09:02:17 F 94 217.35 KINGSTON UPON THAMES, Royaume-Uni
317 372 PERRET JACQUES 09:07:06 F 95 216.30 BELLEGARDE, FRANCE
318 408 SNIJDERS ETIENNE 09:07:55 E 92 219.45 Venelles, France
319 441 SANDER HANS 09:07:56 E 93 218.40 HOOGVLIET ROTTERDAM, Pays-Bas
320 438 GOMIS JULES 09:07:58 D 69 243.60 SAUVIAN, FRANCE
321 157 ? ? 09:08:41 J 1 315.00 ,
322 49 TRONEL JEAN - JACQUES 09:21:24 G2 12 303.45 Saint Colomban des Villards, France
323 70 HARTMAN WILLEM 09:30:20 G2 13 302.40 Amersfoort, Pays-Bas
324 56 BOURSET JACQUES 09:31:01 G1 26 288.75 SAINT BONNET DU GARD, FRANCE
325 430 HEBERT ERIC 09:31:02 F 96 215.25 COULANS SUR GéE, France
326 520 RENAUD JOSEPH 09:31:02 G1 27 287.70 MORMAISON, FRANCE

La Bourgogne Cyclo

Après une saison 2020 très particulière et face à cette pandémie qui s'étire en longueur, nous avons dû nous adapter.

Ainsi, c'est avec beaucoup de regrets que nous vous annonçons que La Bourgogne Cyclo ne sera pas organisée en 2021.

Nous travaillons afin que vous puissiez relever le défi de manière alternative.

Nous vous tiendrons informés.
TOP